MicroStrategy Current Ratio 2010-2024 | MSTR

Current and historical current ratio for MicroStrategy (MSTR) from 2010 to 2024. Current ratio can be defined as a liquidity ratio that measures a company's ability to pay short-term obligations. MicroStrategy current ratio for the three months ending March 31, 2024 was 0.78.
MicroStrategy Current Ratio Historical Data
Date Current Assets Current Liabilities Current Ratio
2024-03-31 $0.24B $0.31B 0.78
2023-12-31 $0.27B $0.32B 0.83
2023-09-30 $0.20B $0.27B 0.75
2023-06-30 $0.21B $0.27B 0.77
2023-03-31 $0.26B $0.31B 0.83
2022-12-31 $0.27B $0.32B 0.83
2022-09-30 $0.20B $0.26B 0.78
2022-06-30 $0.22B $0.27B 0.80
2022-03-31 $0.25B $0.31B 0.81
2021-12-31 $0.27B $0.31B 0.86
2021-09-30 $0.20B $0.25B 0.78
2021-06-30 $0.21B $0.28B 0.76
2021-03-31 $0.25B $0.28B 0.88
2020-12-31 $0.27B $0.29B 0.95
2020-09-30 $0.22B $0.24B 0.90
2020-06-30 $0.67B $0.24B 2.80
2020-03-31 $0.69B $0.25B 2.74
2019-12-31 $0.75B $0.27B 2.79
2019-09-30 $0.72B $0.23B 3.13
2019-06-30 $0.73B $0.25B 2.90
2019-03-31 $0.72B $0.26B 2.72
2018-12-31 $0.78B $0.26B 3.01
2018-09-30 $0.84B $0.21B 3.96
2018-06-30 $0.85B $0.24B 3.61
2018-03-31 $0.88B $0.26B 3.35
2017-12-31 $0.86B $0.27B 3.18
2017-09-30 $0.73B $0.18B 4.13
2017-06-30 $0.72B $0.18B 3.94
2017-03-31 $0.70B $0.19B 3.79
2016-12-31 $0.69B $0.19B 3.69
2016-09-30 $0.65B $0.18B 3.55
2016-06-30 $0.62B $0.19B 3.28
2016-03-31 $0.61B $0.20B 3.11
2015-12-31 $0.57B $0.17B 3.27
2015-09-30 $0.54B $0.18B 2.96
2015-06-30 $0.51B $0.19B 2.73
2015-03-31 $0.48B $0.20B 2.45
2014-12-31 $0.46B $0.20B 2.34
2014-09-30 $0.46B $0.22B 2.09
2014-06-30 $0.47B $0.23B 2.02
2014-03-31 $0.46B $0.23B 2.02
2013-12-31 $0.48B $0.23B 2.06
2013-09-30 $0.44B $0.22B 2.01
2013-06-30 $0.42B $0.21B 2.02
2013-03-31 $0.43B $0.22B 1.99
2012-12-31 $0.36B $0.22B 1.65
2012-09-30 $0.34B $0.21B 1.64
2012-06-30 $0.32B $0.19B 1.63
2012-03-31 $0.33B $0.22B 1.52
2011-12-31 $0.34B $0.22B 1.57
2011-09-30 $0.31B $0.19B 1.60
2011-06-30 $0.31B $0.19B 1.59
2011-03-31 $0.31B $0.19B 1.63
2010-12-31 $0.30B $0.19B 1.59
2010-09-30 $0.28B $0.17B 1.65
2010-06-30 $0.29B $0.15B 1.88
2010-03-31 $0.30B $0.15B 2.00
2009-12-31 $0.31B $0.15B 2.00
2009-09-30 $0.28B $0.14B 2.02
2009-06-30 $0.24B $0.13B 1.86
2009-03-31 $0.23B $0.13B 1.72
Sector Industry Market Cap Revenue
Computer and Technology Computer Software $26.064B $0.496B
MicroStrategy Incorporated, a leading worldwide provider of business intelligence software, today announced that GT Nexus has selected MicroStrategy to power the customer-facing analytics and reporting capabilities on its Global Logistics portal. The GT Nexus portal is an on demand technology platform that is used by importers, exporters, transportation carriers, suppliers, banks, and other partners to manage goods that are moving around the world. The GT Nexus system captures and stores hard-to-get data associated with global supply chains, and then fuels a range of Web applications that can be used by constituents to lower supply chain costs and improve control. MicroStrategy will help GT Nexus to deliver a wide range of analytics and reporting capabilities to its customers, which include Home Depot, Kmart, Xerox, Weyerhaeuser, and American Eagle Outfitters.
Stock Name Country Market Cap PE Ratio
Microsoft (MSFT) United States $3317.335B 38.64
Oracle (ORCL) United States $397.543B 32.36
Adobe (ADBE) United States $233.968B 37.46
Salesforce (CRM) United States $224.624B 33.45
Intuit (INTU) United States $170.434B 53.11
Synopsys (SNPS) United States $95.041B 65.50
Cadence Design Systems (CDNS) United States $88.946B 84.58
Autodesk (ADSK) United States $52.610B 47.96
Dassault Systemes SA (DASTY) France $51.557B 33.50
ANSYS (ANSS) United States $28.384B 52.53
PTC (PTC) United States $20.712B 54.93
SS&C Technologies Holdings (SSNC) United States $15.304B 14.49
Manhattan Associates (MANH) United States $14.615B 77.57
Descartes Systems Group (DSGX) Canada $8.089B 67.66
Open Text (OTEX) Canada $7.800B 7.94
Trend Micro (TMICY) Japan $5.937B 43.00
CommVault Systems (CVLT) United States $5.124B 83.73
Pegasystems (PEGA) United States $4.832B 42.73
Blackbaud (BLKB) United States $3.974B 34.21
ACI Worldwide (ACIW) United States $3.798B 18.19
Verint Systems (VRNT) United States $2.158B 20.21
Progress Software (PRGS) United States $2.116B 13.45
Sapiens (SPNS) Israel $1.861B 25.38
BlackBerry (BB) Canada $1.351B 0.00
PROS Holdings (PRO) United States $1.322B 0.00
Simulations Plus (SLP) United States $0.943B 69.43
Rand Worldwide (RWWI) United States $0.653B 0.00
Magic Software Enterprises (MGIC) Israel $0.498B 10.57
Canaan (CAN) China $0.319B 0.00
American Software (AMSWA) United States $0.293B 25.20
OptimizeRx (OPRX) United States $0.198B 0.00
Rigetti Computing (RGTI) United States $0.168B 0.00
Icad Inc (ICAD) United States $0.038B 0.00
Neonode (NEON) Sweden $0.031B 0.00
Wetouch Technology (WETH) $0.030B 0.00
NetSol Technologies (NTWK) United States $0.030B 0.00
Smith Micro Software (SMSI) United States $0.022B 0.00
Hanryu Holdings (HRYU) South Korea $0.015B 0.00
GSE Systems (GVP) United States $0.011B 0.00
SAP SE (SAP) Germany $0.000B 48.24